createdAt,value
2022-08-30T00:02:01.673Z,15.82
2022-08-30T00:04:28.143Z,15.88
2022-08-30T00:06:54.603Z,15.89
2022-08-30T00:09:21.041Z,15.89
2022-08-30T00:11:50.122Z,15.91
2022-08-30T00:14:16.558Z,15.87
2022-08-30T00:16:42.972Z,15.90
2022-08-30T00:19:09.412Z,15.93
2022-08-30T00:21:35.861Z,15.95
2022-08-30T00:24:02.636Z,15.92
2022-08-30T00:26:29.117Z,15.95
2022-08-30T00:28:55.519Z,15.95
2022-08-30T00:31:22.017Z,15.96
2022-08-30T00:33:48.488Z,15.95
2022-08-30T00:36:16.032Z,15.91
2022-08-30T00:38:42.433Z,15.91
2022-08-30T00:41:08.885Z,15.88
2022-08-30T00:43:36.788Z,15.90
2022-08-30T00:46:07.692Z,15.87
2022-08-30T00:48:38.778Z,15.89
2022-08-30T00:51:09.425Z,15.87
2022-08-30T00:53:39.159Z,15.82
2022-08-30T00:56:07.037Z,15.82
2022-08-30T00:58:37.194Z,15.79
2022-08-30T01:01:06.829Z,15.68
2022-08-30T01:03:34.989Z,15.76
2022-08-30T01:06:04.480Z,15.67
2022-08-30T01:08:31.192Z,15.71
2022-08-30T01:10:58.056Z,15.68
2022-08-30T01:13:26.120Z,15.68
2022-08-30T01:15:53.829Z,15.66
2022-08-30T01:18:23.247Z,15.66
2022-08-30T01:21:00.438Z,15.67
2022-08-30T01:23:28.766Z,15.52
2022-08-30T01:25:57.101Z,15.63
2022-08-30T01:28:26.069Z,15.57
2022-08-30T01:30:53.450Z,15.62
2022-08-30T01:33:21.503Z,15.58
2022-08-30T01:35:53.719Z,15.59
2022-08-30T01:38:23.752Z,15.56
2022-08-30T01:40:50.613Z,15.55
2022-08-30T01:43:18.477Z,15.54
2022-08-30T01:45:46.132Z,15.53
2022-08-30T01:48:12.911Z,15.55
2022-08-30T01:50:41.347Z,15.57
2022-08-30T01:53:08.888Z,15.55
2022-08-30T01:55:40.331Z,15.53
2022-08-30T01:58:06.898Z,15.55
2022-08-30T02:00:33.651Z,15.53
2022-08-30T02:03:00.129Z,15.52
2022-08-30T02:05:26.557Z,15.51
2022-08-30T02:07:53.819Z,15.49
2022-08-30T02:10:20.826Z,15.48
2022-08-30T02:12:47.607Z,15.47
2022-08-30T02:15:14.220Z,15.45
2022-08-30T02:17:41.687Z,15.44
2022-08-30T02:20:08.945Z,15.43
2022-08-30T02:22:35.476Z,15.42
2022-08-30T02:25:01.951Z,15.45
2022-08-30T02:27:28.388Z,15.43
2022-08-30T02:29:54.961Z,15.41
2022-08-30T02:32:21.446Z,15.40
2022-08-30T02:34:47.935Z,15.38
2022-08-30T02:37:16.880Z,15.37
2022-08-30T02:39:43.780Z,15.41
2022-08-30T02:42:10.231Z,15.40
2022-08-30T02:44:36.651Z,15.38
2022-08-30T02:47:03.659Z,15.39
2022-08-30T02:49:33.693Z,15.36
2022-08-30T02:52:02.003Z,15.34
2022-08-30T02:54:28.570Z,15.33
2022-08-30T02:56:56.388Z,15.32
2022-08-30T02:59:22.860Z,15.29
2022-08-30T03:01:49.736Z,15.28
2022-08-30T03:04:16.291Z,15.25
2022-08-30T03:06:42.699Z,15.27
2022-08-30T03:09:09.149Z,15.22
2022-08-30T03:11:35.616Z,15.21
2022-08-30T03:14:02.022Z,15.19
2022-08-30T03:16:28.563Z,15.20
2022-08-30T03:18:55.190Z,15.18
2022-08-30T03:21:21.717Z,15.17
2022-08-30T03:23:48.163Z,15.14
2022-08-30T03:26:15.034Z,15.13
2022-08-30T03:28:43.132Z,15.11
2022-08-30T03:31:10.112Z,15.11
2022-08-30T03:33:37.565Z,15.09
2022-08-30T03:36:04.236Z,15.06
2022-08-30T03:38:31.156Z,15.03
2022-08-30T03:40:57.567Z,15.03
2022-08-30T03:43:25.310Z,15.01
2022-08-30T03:45:52.317Z,14.98
2022-08-30T03:48:18.754Z,14.95
2022-08-30T03:50:45.200Z,14.96
2022-08-30T03:53:11.625Z,14.94
2022-08-30T03:55:38.011Z,14.96
2022-08-30T03:58:04.659Z,14.95
2022-08-30T04:00:31.297Z,14.93
2022-08-30T04:02:57.739Z,14.89
2022-08-30T04:05:24.122Z,14.91
2022-08-30T04:07:50.608Z,14.90
2022-08-30T04:10:17.042Z,14.92
2022-08-30T04:12:48.904Z,14.95
2022-08-30T04:15:18.429Z,14.88
2022-08-30T04:17:45.218Z,14.86
2022-08-30T04:20:11.750Z,14.85
2022-08-30T04:22:38.674Z,14.83
2022-08-30T04:25:06.224Z,14.80
2022-08-30T04:27:32.763Z,14.81
2022-08-30T04:29:59.922Z,14.79
2022-08-30T04:32:26.840Z,14.77
2022-08-30T04:34:58.543Z,14.68
2022-08-30T04:37:25.215Z,14.74
2022-08-30T04:39:56.137Z,14.73
2022-08-30T04:42:22.573Z,14.70
2022-08-30T04:44:49.389Z,14.68
2022-08-30T04:47:15.768Z,14.66
2022-08-30T04:49:42.217Z,14.62
2022-08-30T04:52:10.848Z,14.68
2022-08-30T04:54:37.316Z,14.67
2022-08-30T04:57:06.045Z,14.69
2022-08-30T04:59:33.397Z,14.69
2022-08-30T05:02:00.368Z,14.73
2022-08-30T05:04:26.855Z,14.74
2022-08-30T05:06:53.878Z,14.75
2022-08-30T05:09:21.578Z,14.75
2022-08-30T05:11:48.122Z,14.80
2022-08-30T05:14:14.814Z,14.81
2022-08-30T05:16:41.814Z,14.82
2022-08-30T05:19:08.335Z,14.85
2022-08-30T05:21:35.399Z,14.87
2022-08-30T05:24:01.983Z,14.86
2022-08-30T05:26:32.040Z,14.93
2022-08-30T05:28:58.925Z,14.94
2022-08-30T05:31:31.974Z,14.94
2022-08-30T05:33:59.374Z,15.01
2022-08-30T05:36:28.382Z,15.04
2022-08-30T05:38:55.817Z,15.06
2022-08-30T05:41:26.671Z,15.08
2022-08-30T05:43:59.034Z,15.13
2022-08-30T05:46:28.891Z,15.17
2022-08-30T05:48:56.969Z,15.20
2022-08-30T05:51:25.339Z,15.25
2022-08-30T05:53:53.419Z,15.25
2022-08-30T05:56:24.749Z,15.32
2022-08-30T05:58:52.799Z,15.37
2022-08-30T06:01:34.409Z,15.41
2022-08-30T06:04:04.137Z,15.47
2022-08-30T06:06:32.535Z,15.47
2022-08-30T06:08:59.023Z,15.55
2022-08-30T06:11:26.183Z,15.61
2022-08-30T06:13:53.981Z,15.63
2022-08-30T06:16:23.495Z,15.74
2022-08-30T06:18:50.457Z,15.77
2022-08-30T06:21:29.089Z,15.65
2022-08-30T06:23:56.747Z,15.97
2022-08-30T06:26:23.311Z,16.04
2022-08-30T06:28:50.725Z,16.12
2022-08-30T06:31:19.114Z,16.17
2022-08-30T06:33:46.567Z,16.24
2022-08-30T06:36:19.126Z,16.29
2022-08-30T06:38:47.280Z,16.45
2022-08-30T06:41:19.444Z,16.56
2022-08-30T06:43:49.046Z,16.64
2022-08-30T06:46:28.099Z,16.65
2022-08-30T06:48:56.379Z,16.79
2022-08-30T06:51:26.387Z,16.87
2022-08-30T06:53:53.593Z,16.95
2022-08-30T06:56:22.143Z,17.00
2022-08-30T06:58:49.457Z,17.03
2022-08-30T07:01:21.752Z,17.07
2022-08-30T07:03:49.175Z,17.30
2022-08-30T07:06:16.174Z,17.38
2022-08-30T07:08:45.874Z,17.51
2022-08-30T07:11:12.343Z,17.64
2022-08-30T07:13:39.136Z,17.68
2022-08-30T07:16:13.597Z,17.81
2022-08-30T07:18:54.812Z,17.88
2022-08-30T07:21:31.607Z,17.95
2022-08-30T07:23:59.631Z,18.07
2022-08-30T07:26:34.715Z,18.15
2022-08-30T07:29:01.870Z,18.27
2022-08-30T07:31:29.196Z,18.38
2022-08-30T07:33:55.886Z,18.43
2022-08-30T07:36:22.763Z,18.55
2022-08-30T07:38:50.843Z,18.56
2022-08-30T07:41:29.898Z,18.60
2022-08-30T07:43:56.598Z,18.73
2022-08-30T07:46:24.399Z,18.80
2022-08-30T07:48:51.346Z,18.85
2022-08-30T07:51:20.217Z,18.94
2022-08-30T07:53:46.772Z,19.08
2022-08-30T07:56:13.391Z,19.11
2022-08-30T07:58:39.882Z,19.08
2022-08-30T08:01:08.475Z,19.15
2022-08-30T08:03:35.634Z,19.25
2022-08-30T08:06:04.428Z,19.34
2022-08-30T08:08:31.485Z,19.53
2022-08-30T08:10:58.021Z,19.64
2022-08-30T08:13:28.030Z,19.67
2022-08-30T08:15:59.151Z,19.71
2022-08-30T08:18:25.627Z,19.73
2022-08-30T08:20:52.055Z,19.83
2022-08-30T08:23:21.761Z,19.84
2022-08-30T08:25:48.272Z,19.86
2022-08-30T08:28:14.683Z,19.95
2022-08-30T08:30:45.094Z,19.99
2022-08-30T08:33:14.253Z,19.92
2022-08-30T08:35:41.030Z,20.08
2022-08-30T08:38:07.663Z,20.16
2022-08-30T08:40:56.940Z,20.29
2022-08-30T08:43:26.693Z,20.31
2022-08-30T08:46:12.025Z,20.45
2022-08-30T08:48:58.542Z,20.72
2022-08-30T08:51:47.461Z,20.82
2022-08-30T08:54:21.247Z,21.10
2022-08-30T08:56:47.998Z,21.31
2022-08-30T08:59:16.288Z,21.46
2022-08-30T09:01:42.888Z,21.47
2022-08-30T09:04:17.487Z,21.36
2022-08-30T09:06:55.279Z,21.32
2022-08-30T09:09:29.518Z,21.59
2022-08-30T09:11:56.012Z,22.03
2022-08-30T09:14:33.483Z,22.06
2022-08-30T09:17:02.916Z,22.59
2022-08-30T09:19:44.088Z,22.82
2022-08-30T09:22:11.006Z,22.52
2022-08-30T09:24:50.546Z,22.60
2022-08-30T09:27:24.967Z,22.86
2022-08-30T09:30:06.174Z,23.00
2022-08-30T09:32:44.419Z,22.63
2022-08-30T09:35:18.160Z,22.73
2022-08-30T09:37:56.597Z,22.65
2022-08-30T09:40:44.340Z,22.53
2022-08-30T09:43:24.286Z,22.19
2022-08-30T09:46:01.321Z,22.33
2022-08-30T09:48:44.876Z,22.40
2022-08-30T09:51:11.660Z,22.40
2022-08-30T09:54:01.065Z,22.15
2022-08-30T09:57:11.600Z,22.26
2022-08-30T10:00:01.981Z,22.19
2022-08-30T10:02:34.218Z,22.24
2022-08-30T10:05:20.636Z,22.14
2022-08-30T10:08:18.734Z,22.04
2022-08-30T10:10:57.543Z,22.51
2022-08-30T10:13:38.749Z,22.79
2022-08-30T10:16:39.327Z,22.52
2022-08-30T10:19:23.562Z,22.55
2022-08-30T10:22:09.418Z,22.39
2022-08-30T10:24:42.579Z,22.52
2022-08-30T10:27:18.158Z,22.55
2022-08-30T10:29:54.895Z,22.28
2022-08-30T10:32:43.940Z,22.54
2022-08-30T10:35:19.314Z,22.39
2022-08-30T10:37:58.782Z,22.12
2022-08-30T10:40:56.297Z,22.09
2022-08-30T10:44:01.109Z,22.47
2022-08-30T10:46:27.452Z,22.77
2022-08-30T10:48:56.150Z,22.74
2022-08-30T10:51:31.616Z,22.56
2022-08-30T10:54:10.571Z,22.17
2022-08-30T10:56:43.080Z,22.25
2022-08-30T10:59:11.997Z,22.26
2022-08-30T11:02:19.679Z,22.45
2022-08-30T11:05:15.277Z,22.42
2022-08-30T11:07:52.227Z,22.29
2022-08-30T11:10:38.719Z,22.49
2022-08-30T11:13:25.147Z,22.84
2022-08-30T11:15:58.279Z,22.51
2022-08-30T11:18:28.052Z,22.25
2022-08-30T11:21:23.692Z,22.35
2022-08-30T11:24:21.910Z,22.30
2022-08-30T11:26:48.466Z,22.45
2022-08-30T11:29:27.557Z,22.65
2022-08-30T11:31:59.679Z,22.53
2022-08-30T11:34:45.450Z,22.60
2022-08-30T11:37:41.965Z,22.53
2022-08-30T11:40:13.314Z,22.43
2022-08-30T11:42:48.202Z,22.47
2022-08-30T11:45:26.730Z,22.46
2022-08-30T11:47:56.083Z,22.57
2022-08-30T11:50:48.285Z,22.65
2022-08-30T11:53:37.757Z,22.69
2022-08-30T11:56:12.403Z,22.58
2022-08-30T11:58:50.964Z,22.55
2022-08-30T12:01:50.291Z,22.49
2022-08-30T12:04:18.001Z,22.63
2022-08-30T12:06:46.624Z,22.42
2022-08-30T12:09:25.083Z,22.55
2022-08-30T12:12:02.722Z,22.72
2022-08-30T12:14:36.375Z,22.84
2022-08-30T12:17:40.231Z,22.88
2022-08-30T12:20:29.314Z,22.94
2022-08-30T12:22:56.797Z,22.49
2022-08-30T12:25:32.495Z,22.25
2022-08-30T12:28:21.554Z,22.54
2022-08-30T12:30:49.485Z,22.80
2022-08-30T12:33:36.562Z,22.58
2022-08-30T12:36:13.336Z,22.44
2022-08-30T12:38:41.412Z,22.55
2022-08-30T12:41:08.583Z,22.57
2022-08-30T12:43:41.410Z,22.26
2022-08-30T12:46:12.459Z,22.06
2022-08-30T12:48:42.407Z,22.31
2022-08-30T12:51:27.413Z,22.47
2022-08-30T12:53:53.961Z,22.37
2022-08-30T12:56:35.119Z,22.31
2022-08-30T12:59:07.533Z,22.18
2022-08-30T13:01:36.226Z,22.26
2022-08-30T13:04:25.866Z,21.96
2022-08-30T13:07:01.388Z,22.04
2022-08-30T13:09:33.862Z,21.93
2022-08-30T13:12:02.811Z,21.88
2022-08-30T13:14:38.157Z,22.04
2022-08-30T13:17:28.820Z,21.82
2022-08-30T13:20:05.671Z,21.92
2022-08-30T13:22:33.890Z,22.02
2022-08-30T13:25:01.629Z,22.23
2022-08-30T13:27:29.161Z,22.24
2022-08-30T13:29:57.410Z,22.19
2022-08-30T13:32:24.653Z,22.18
2022-08-30T13:34:51.317Z,22.31
2022-08-30T13:40:13.929Z,21.90
2022-08-30T13:42:42.815Z,21.90
2022-08-30T13:47:57.701Z,22.08
2022-08-30T13:50:24.261Z,22.07
2022-08-30T13:52:52.207Z,22.04
2022-08-30T13:55:18.727Z,21.95
2022-08-30T13:57:54.494Z,21.84
2022-08-30T14:00:22.865Z,21.64
2022-08-30T14:02:54.411Z,21.70
2022-08-30T14:11:18.630Z,21.77
2022-08-30T14:16:33.227Z,21.76
2022-08-30T14:19:00.562Z,21.79
2022-08-30T14:21:27.572Z,21.80
2022-08-30T14:23:56.814Z,21.82
2022-08-30T14:26:32.866Z,21.78
2022-08-30T14:29:01.953Z,21.65
2022-08-30T14:31:29.975Z,21.66
2022-08-30T14:33:59.417Z,21.77
2022-08-30T14:36:25.870Z,21.76
2022-08-30T14:38:52.421Z,21.68
2022-08-30T14:41:19.072Z,21.65
2022-08-30T14:43:45.828Z,21.66
2022-08-30T14:46:13.793Z,21.71
2022-08-30T14:48:41.625Z,21.80
2022-08-30T14:51:18.084Z,21.85
2022-08-30T14:53:45.418Z,21.81
2022-08-30T14:56:14.900Z,21.73
2022-08-30T14:58:41.634Z,21.70
2022-08-30T15:01:09.874Z,21.79
2022-08-30T15:03:38.264Z,21.81
2022-08-30T15:06:05.984Z,21.85
2022-08-30T15:08:33.706Z,21.86
2022-08-30T15:11:01.262Z,21.82
2022-08-30T15:13:29.618Z,21.73
2022-08-30T15:15:56.644Z,21.70
2022-08-30T15:18:24.329Z,21.66
2022-08-30T15:20:50.826Z,21.68
2022-08-30T15:23:17.306Z,21.72
2022-08-30T15:25:49.328Z,21.67
2022-08-30T15:28:16.849Z,21.67
2022-08-30T15:30:44.331Z,21.55
2022-08-30T15:33:10.877Z,21.57
2022-08-30T15:35:40.371Z,21.79
2022-08-30T15:38:06.877Z,21.69
2022-08-30T15:40:35.168Z,21.68
2022-08-30T15:43:04.919Z,21.68
2022-08-30T15:45:31.605Z,21.69
2022-08-30T15:48:01.426Z,21.70
2022-08-30T15:50:28.773Z,21.68
2022-08-30T15:52:56.927Z,21.63
2022-08-30T15:55:23.553Z,21.60
2022-08-30T15:57:50.290Z,21.56
2022-08-30T16:00:17.443Z,21.73
2022-08-30T16:02:48.075Z,21.72
2022-08-30T16:05:15.265Z,21.69
2022-08-30T16:07:41.698Z,21.66
2022-08-30T16:10:09.150Z,21.61
2022-08-30T16:12:35.580Z,21.48
2022-08-30T16:15:01.976Z,21.47
2022-08-30T16:17:28.467Z,21.50
2022-08-30T16:19:58.873Z,21.48
2022-08-30T16:22:26.479Z,21.40
2022-08-30T16:24:53.013Z,21.37
2022-08-30T16:27:19.497Z,21.30
2022-08-30T16:29:47.945Z,21.32
2022-08-30T16:32:17.271Z,21.35
2022-08-30T16:34:43.679Z,21.29
2022-08-30T16:37:10.089Z,21.26
2022-08-30T16:39:36.861Z,21.20
2022-08-30T16:42:03.436Z,21.14
2022-08-30T16:44:33.222Z,21.12
2022-08-30T16:47:00.736Z,21.10
2022-08-30T16:49:27.503Z,21.06
2022-08-30T16:51:54.451Z,21.01
2022-08-30T16:54:21.680Z,20.93
2022-08-30T16:56:48.234Z,20.90
2022-08-30T16:59:16.736Z,20.83
2022-08-30T17:01:44.893Z,20.80
2022-08-30T17:04:12.927Z,20.78
2022-08-30T17:06:43.362Z,20.60
2022-08-30T17:09:10.850Z,20.67
2022-08-30T17:11:40.279Z,20.63
2022-08-30T17:14:07.260Z,20.56
2022-08-30T17:16:35.818Z,20.54
2022-08-30T17:19:06.187Z,20.49
2022-08-30T17:21:33.175Z,20.40
2022-08-30T17:24:01.627Z,20.30
2022-08-30T17:26:33.751Z,20.32
2022-08-30T17:29:00.200Z,20.28
2022-08-30T17:31:29.422Z,20.23
2022-08-30T17:34:01.192Z,20.19
2022-08-30T17:36:36.519Z,20.18
2022-08-30T17:41:54.803Z,20.03
2022-08-30T17:44:25.537Z,19.89
2022-08-30T17:46:53.046Z,19.94
2022-08-30T17:49:19.692Z,19.89
2022-08-30T17:51:47.760Z,19.89
2022-08-30T17:54:14.910Z,19.88
2022-08-30T17:56:41.997Z,19.83
2022-08-30T17:59:11.076Z,19.83
2022-08-30T18:01:38.345Z,19.83
2022-08-30T18:06:53.952Z,19.59
2022-08-30T18:09:21.587Z,19.53
2022-08-30T18:11:49.865Z,19.48
2022-08-30T18:14:17.045Z,19.48
2022-08-30T18:16:53.118Z,19.44
2022-08-30T18:19:21.350Z,19.39
2022-08-30T18:21:47.884Z,19.32
2022-08-30T18:24:16.256Z,19.19
2022-08-30T18:26:43.201Z,19.11
2022-08-30T18:29:10.902Z,19.02
2022-08-30T18:31:37.509Z,18.96
2022-08-30T18:34:04.056Z,18.95
2022-08-30T18:36:30.538Z,18.88
2022-08-30T18:38:58.269Z,18.80
2022-08-30T18:41:26.112Z,18.78
2022-08-30T18:44:10.929Z,18.74
2022-08-30T18:46:39.480Z,18.59
2022-08-30T18:49:22.480Z,18.57
2022-08-30T18:51:49.993Z,18.53
2022-08-30T18:54:16.522Z,18.51
2022-08-30T18:56:45.065Z,18.48
2022-08-30T18:59:11.824Z,18.36
2022-08-30T19:01:39.015Z,18.32
2022-08-30T19:04:06.831Z,18.32
2022-08-30T19:06:34.599Z,18.30
2022-08-30T19:09:01.404Z,18.22
2022-08-30T19:11:28.068Z,18.17
2022-08-30T19:13:54.942Z,18.12
2022-08-30T19:16:21.895Z,18.04
2022-08-30T19:18:48.885Z,18.08
2022-08-30T19:21:15.461Z,18.04
2022-08-30T19:23:43.426Z,17.98
2022-08-30T19:26:10.811Z,17.94
2022-08-30T19:28:37.571Z,17.96
2022-08-30T19:31:04.546Z,17.97
2022-08-30T19:33:33.272Z,17.92
2022-08-30T19:35:59.998Z,17.87
2022-08-30T19:38:26.538Z,17.84
2022-08-30T19:40:58.166Z,17.80
2022-08-30T19:43:24.928Z,17.72
2022-08-30T19:45:55.619Z,17.74
2022-08-30T19:48:24.130Z,17.72
2022-08-30T19:50:56.029Z,17.71
2022-08-30T19:53:23.080Z,17.69
2022-08-30T19:55:50.120Z,17.64
2022-08-30T19:58:17.044Z,17.64
2022-08-30T20:03:33.436Z,17.58
2022-08-30T20:05:59.850Z,17.60
2022-08-30T20:08:27.566Z,17.64
2022-08-30T20:10:54.052Z,17.63
2022-08-30T20:13:23.879Z,17.63
2022-08-30T20:15:56.317Z,17.39
2022-08-30T20:18:25.954Z,17.50
2022-08-30T20:20:53.379Z,17.47
2022-08-30T20:23:21.781Z,17.46
2022-08-30T20:24:24.886Z,20.07
2022-08-30T20:24:26.741Z,19.75
2022-08-30T20:25:54.719Z,17.47
2022-08-30T20:28:21.749Z,17.46
2022-08-30T20:30:49.375Z,17.47
2022-08-30T20:33:16.219Z,17.42
2022-08-30T20:35:48.831Z,17.41
2022-08-30T20:38:21.608Z,17.33
2022-08-30T20:40:51.277Z,17.35
2022-08-30T20:43:20.001Z,17.31
2022-08-30T20:45:46.846Z,17.31
2022-08-30T20:48:13.675Z,17.25
2022-08-30T20:50:41.350Z,17.20
2022-08-30T20:53:07.903Z,17.21
2022-08-30T20:55:34.505Z,17.08
2022-08-30T20:58:00.942Z,17.19
2022-08-30T21:00:27.696Z,17.17
2022-08-30T21:02:54.233Z,17.17
2022-08-30T21:05:20.665Z,17.15
2022-08-30T21:07:47.218Z,17.14
2022-08-30T21:10:14.142Z,17.12
2022-08-30T21:12:40.562Z,17.11
2022-08-30T21:15:34.113Z,17.11
2022-08-30T21:17:54.508Z,17.06
2022-08-30T21:20:21.000Z,17.06
2022-08-30T21:22:47.600Z,17.03
2022-08-30T21:25:15.539Z,16.88
2022-08-30T21:27:43.658Z,16.89
2022-08-30T21:30:12.843Z,16.91
2022-08-30T21:32:39.395Z,16.93
2022-08-30T21:35:25.283Z,16.91
2022-08-30T21:37:53.227Z,16.88
2022-08-30T21:40:20.120Z,16.87
2022-08-30T21:42:46.631Z,16.86
2022-08-30T21:45:13.742Z,16.85
2022-08-30T21:47:40.283Z,16.85
2022-08-30T21:50:06.892Z,16.77
2022-08-30T21:52:34.458Z,16.84
2022-08-30T21:55:00.963Z,16.80
2022-08-30T21:57:29.393Z,16.82
2022-08-30T21:59:55.810Z,16.80
2022-08-30T22:02:23.401Z,16.79
2022-08-30T22:04:49.908Z,16.74
2022-08-30T22:07:16.463Z,16.74
2022-08-30T22:09:45.573Z,16.74
2022-08-30T22:12:11.993Z,16.69
2022-08-30T22:14:38.463Z,16.69
2022-08-30T22:17:05.394Z,16.66
2022-08-30T22:19:33.755Z,16.65
2022-08-30T22:22:01.753Z,16.65
2022-08-30T22:24:32.402Z,16.64
2022-08-30T22:26:59.633Z,16.59
2022-08-30T22:29:26.084Z,16.63
2022-08-30T22:31:52.643Z,16.57
2022-08-30T22:34:19.102Z,16.59
2022-08-30T22:36:45.807Z,16.55
2022-08-30T22:39:13.300Z,16.52
2022-08-30T22:41:41.354Z,16.53
2022-08-30T22:44:07.758Z,16.50
2022-08-30T22:46:35.934Z,16.50
2022-08-30T22:49:05.280Z,16.45
2022-08-30T22:51:33.005Z,16.42
2022-08-30T22:54:01.188Z,16.41
2022-08-30T22:56:28.641Z,16.40
2022-08-30T22:58:55.969Z,16.36
2022-08-30T23:01:36.758Z,16.35
2022-08-30T23:04:05.666Z,16.38
2022-08-30T23:06:32.771Z,16.36
2022-08-30T23:08:59.669Z,16.36
2022-08-30T23:11:26.799Z,16.35
2022-08-30T23:13:53.569Z,16.35
2022-08-30T23:16:20.697Z,16.30
2022-08-30T23:18:47.995Z,16.28
2022-08-30T23:21:18.634Z,16.19
2022-08-30T23:24:03.771Z,16.21
2022-08-30T23:26:48.765Z,16.22
2022-08-30T23:29:33.492Z,16.23
2022-08-30T23:32:18.973Z,16.21
2022-08-30T23:35:03.803Z,16.19
2022-08-30T23:37:53.028Z,16.16
2022-08-30T23:40:39.803Z,16.13
2022-08-30T23:43:25.981Z,16.12
2022-08-30T23:46:11.249Z,16.15
2022-08-30T23:49:04.400Z,16.12
2022-08-30T23:51:49.263Z,16.09
2022-08-30T23:54:34.124Z,16.12
2022-08-30T23:57:19.121Z,16.12
